createdAt,value
2019-04-20T00:01:25.467Z,13.33
2019-04-20T00:06:24.947Z,13.30
2019-04-20T00:11:41.290Z,12.82
2019-04-20T00:16:35.823Z,13.20
2019-04-20T00:21:46.994Z,13.47
2019-04-20T00:32:06.566Z,15.30
2019-04-20T00:37:00.652Z,13.53
2019-04-20T00:42:10.710Z,12.00
2019-04-20T00:47:20.080Z,12.47
2019-04-20T00:52:30.969Z,13.00
2019-04-20T00:57:34.699Z,11.70
2019-04-20T01:02:40.319Z,12.40
2019-04-20T01:07:59.903Z,13.23
2019-04-20T01:13:06.737Z,12.07
2019-04-20T01:18:06.093Z,12.37
2019-04-20T01:23:13.905Z,13.97
2019-04-20T01:28:35.854Z,12.90
2019-04-20T01:33:34.402Z,11.57
2019-04-20T01:38:45.024Z,10.67
2019-04-20T01:43:35.312Z,10.30
2019-04-20T01:48:41.569Z,11.77
2019-04-20T01:54:06.758Z,16.73
2019-04-20T01:59:18.803Z,12.83
2019-04-20T02:04:11.896Z,14.73
2019-04-20T02:09:17.194Z,11.70
2019-04-20T02:14:28.640Z,10.13
2019-04-20T02:19:37.699Z,11.60
2019-04-20T02:24:32.506Z,10.47
2019-04-20T02:30:03.789Z,10.87
2019-04-20T02:35:29.313Z,10.20
2019-04-20T02:45:50.514Z,9.57
2019-04-20T02:50:43.293Z,12.33
2019-04-20T02:55:47.711Z,11.53
2019-04-20T03:00:45.764Z,13.40
2019-04-20T03:05:38.212Z,12.57
2019-04-20T03:11:00.763Z,10.13
2019-04-20T03:16:01.823Z,10.70
2019-04-20T03:21:12.746Z,12.37
2019-04-20T03:26:18.979Z,12.20
2019-04-20T03:36:49.035Z,12.40
2019-04-20T03:41:32.489Z,11.27
2019-04-20T03:46:36.622Z,14.57
2019-04-20T03:51:57.338Z,10.80
2019-04-20T03:57:15.689Z,11.40
2019-04-20T04:02:37.868Z,11.13
2019-04-20T04:07:21.888Z,11.60
2019-04-20T04:12:54.810Z,12.20
2019-04-20T04:18:07.435Z,13.73
2019-04-20T04:23:24.606Z,11.20
2019-04-20T04:28:28.698Z,13.67
2019-04-20T04:33:53.360Z,12.03
2019-04-20T04:38:51.799Z,11.10
2019-04-20T04:43:50.590Z,12.03
2019-04-20T04:48:41.117Z,13.57
2019-04-20T04:53:52.911Z,10.17
2019-04-20T04:58:49.570Z,11.97
2019-04-20T05:04:21.315Z,11.87
2019-04-20T05:09:05.246Z,10.53
2019-04-20T05:14:16.867Z,11.07
2019-04-20T05:19:37.057Z,11.08
2019-04-20T05:25:01.016Z,10.80
2019-04-20T05:29:44.701Z,15.08
2019-04-20T05:35:17.709Z,13.70
2019-04-20T05:40:20.508Z,12.33
2019-04-20T05:50:27.430Z,10.43
2019-04-20T05:55:34.024Z,11.93
2019-04-20T06:00:53.164Z,11.53
2019-04-20T06:05:55.167Z,11.77
2019-04-20T06:10:56.404Z,13.47
2019-04-20T06:16:01.373Z,12.07
2019-04-20T06:21:19.983Z,13.63
2019-04-20T06:31:26.689Z,11.40
2019-04-20T06:36:32.322Z,11.07
2019-04-20T06:41:54.325Z,9.57
2019-04-20T06:46:48.726Z,9.87
2019-04-20T06:51:57.398Z,12.93
2019-04-20T06:57:01.242Z,11.00
2019-04-20T07:02:11.187Z,12.20
2019-04-20T07:07:15.690Z,12.13
2019-04-20T07:12:21.308Z,12.07
2019-04-20T07:17:39.251Z,13.10
2019-04-20T07:22:55.961Z,10.63
2019-04-20T07:28:02.223Z,10.10
2019-04-20T07:33:12.905Z,9.73
2019-04-20T07:38:24.340Z,14.20
2019-04-20T07:43:09.290Z,10.77
2019-04-20T07:48:20.595Z,10.87
2019-04-20T07:53:25.720Z,11.63
2019-04-20T07:58:25.265Z,9.77
2019-04-20T08:03:44.524Z,9.97
2019-04-20T08:08:43.769Z,11.93
2019-04-20T08:14:00.060Z,10.90
2019-04-20T08:19:01.301Z,10.53
2019-04-20T08:24:02.914Z,10.43
2019-04-20T08:29:21.644Z,11.43
2019-04-20T08:34:46.124Z,10.47
2019-04-20T08:39:58.785Z,11.33
2019-04-20T08:45:03.757Z,11.17
2019-04-20T08:55:16.617Z,11.10
2019-04-20T09:00:09.021Z,11.93
2019-04-20T09:05:30.330Z,10.70
2019-04-20T09:10:43.887Z,10.53
2019-04-20T09:15:27.715Z,12.40
2019-04-20T09:20:45.839Z,8.97
2019-04-20T09:26:01.815Z,10.63
2019-04-20T09:31:09.549Z,10.90
2019-04-20T09:36:14.295Z,13.60
2019-04-20T09:41:34.544Z,9.70
2019-04-20T09:46:13.736Z,14.13
2019-04-20T09:51:37.676Z,11.13
2019-04-20T09:56:39.729Z,9.77
2019-04-20T10:01:40.204Z,10.03
2019-04-20T10:06:37.779Z,11.33
2019-04-20T10:11:45.121Z,8.27
2019-04-20T10:16:49.716Z,10.60
2019-04-20T10:21:54.907Z,8.20
2019-04-20T10:27:00.739Z,12.63
2019-04-20T10:32:07.938Z,8.43
2019-04-20T10:37:13.982Z,10.47
2019-04-20T10:42:18.456Z,9.33
2019-04-20T10:47:23.071Z,8.93
2019-04-20T10:52:27.876Z,8.60
2019-04-20T10:57:33.384Z,8.90
2019-04-20T11:02:37.843Z,11.73
2019-04-20T11:07:42.202Z,10.47
2019-04-20T11:12:46.544Z,9.40
2019-04-20T11:17:51.408Z,9.00
2019-04-20T11:22:56.062Z,7.47
2019-04-20T11:28:01.611Z,11.00
2019-04-20T11:33:06.474Z,8.97
2019-04-20T11:38:13.770Z,10.48
2019-04-20T11:43:17.826Z,9.47
2019-04-20T11:48:23.351Z,10.90
2019-04-20T11:53:28.598Z,11.50
2019-04-20T11:58:33.546Z,8.97
2019-04-20T12:03:49.625Z,10.30
2019-04-20T12:08:45.463Z,8.53
2019-04-20T12:13:49.987Z,9.23
2019-04-20T12:18:54.682Z,10.20
2019-04-20T12:24:00.296Z,8.83
2019-04-20T12:29:05.698Z,12.20
2019-04-20T12:34:10.568Z,6.78
2019-04-20T12:39:15.130Z,8.03
2019-04-20T12:44:19.778Z,6.80
2019-04-20T12:49:25.396Z,7.40
2019-04-20T12:54:29.814Z,8.73
2019-04-20T12:59:34.157Z,9.37
2019-04-20T13:04:39.473Z,9.07
2019-04-20T13:09:48.517Z,8.63
2019-04-20T13:15:29.249Z,6.10
2019-04-20T13:20:34.132Z,10.20
2019-04-20T13:25:39.188Z,6.00
2019-04-20T13:30:43.914Z,5.70
2019-04-20T13:35:48.254Z,7.12
2019-04-20T13:40:53.647Z,8.43
2019-04-20T13:45:59.187Z,6.45
2019-04-20T13:51:05.437Z,6.27
2019-04-20T13:56:12.071Z,7.10
2019-04-20T14:01:26.886Z,10.65
2019-04-20T14:06:31.423Z,7.00
2019-04-20T14:11:36.185Z,7.33
2019-04-20T14:16:41.253Z,7.33
2019-04-20T14:21:46.147Z,6.90
2019-04-20T14:26:50.893Z,8.00
2019-04-20T14:31:55.709Z,6.60
2019-04-20T14:37:02.561Z,5.97
2019-04-20T14:42:07.037Z,7.93
2019-04-20T14:47:11.892Z,5.70
2019-04-20T14:52:17.616Z,6.97
2019-04-20T14:57:23.431Z,7.17
2019-04-20T15:02:30.187Z,6.87
2019-04-20T15:07:34.735Z,6.63
2019-04-20T15:12:48.847Z,6.67
2019-04-20T15:17:51.255Z,8.33
2019-04-20T15:22:57.507Z,7.60
2019-04-20T15:28:02.750Z,6.33
2019-04-20T15:33:07.415Z,6.60
2019-04-20T15:38:11.738Z,8.73
2019-04-20T15:43:20.600Z,8.23
2019-04-20T15:48:22.273Z,7.60
2019-04-20T15:53:26.732Z,7.60
2019-04-20T15:58:32.399Z,7.37
2019-04-20T16:03:47.677Z,6.97
2019-04-20T16:08:54.454Z,7.47
2019-04-20T16:14:00.125Z,6.43
2019-04-20T16:19:15.908Z,7.73
2019-04-20T16:24:12.961Z,7.83
2019-04-20T16:29:17.789Z,6.57
2019-04-20T16:34:23.375Z,7.40
2019-04-20T16:39:28.270Z,7.37
2019-04-20T16:44:33.426Z,7.03
2019-04-20T16:49:39.040Z,6.72
2019-04-20T16:54:43.869Z,6.37
2019-04-20T16:59:52.260Z,9.00
2019-04-20T17:04:55.404Z,9.20
2019-04-20T17:10:00.342Z,6.77
2019-04-20T17:15:07.529Z,7.37
2019-04-20T17:20:13.757Z,7.37
2019-04-20T17:25:19.646Z,8.73
2019-04-20T17:30:47.215Z,9.20
2019-04-20T17:35:59.359Z,7.43
2019-04-20T17:41:13.692Z,7.03
2019-04-20T17:46:12.178Z,6.33
2019-04-20T17:51:37.189Z,10.10
2019-04-20T17:56:17.423Z,7.57
2019-04-20T18:01:42.347Z,6.40
2019-04-20T18:06:52.652Z,6.33
2019-04-20T18:11:47.332Z,7.73
2019-04-20T18:17:11.393Z,6.67
2019-04-20T18:22:01.257Z,6.53
2019-04-20T18:27:28.953Z,10.03
2019-04-20T18:32:13.984Z,11.13
2019-04-20T18:37:21.468Z,9.40
2019-04-20T18:42:32.358Z,7.30
2019-04-20T18:47:49.657Z,7.60
2019-04-20T18:52:37.896Z,7.60
2019-04-20T18:57:44.455Z,7.27
2019-04-20T19:02:53.859Z,8.23
2019-04-20T19:08:01.474Z,12.43
2019-04-20T19:13:25.346Z,9.33
2019-04-20T19:18:58.458Z,8.77
2019-04-20T19:23:57.980Z,9.50
2019-04-20T19:28:58.333Z,8.33
2019-04-20T19:34:18.803Z,8.80
2019-04-20T19:39:22.253Z,8.10
2019-04-20T19:44:25.013Z,9.80
2019-04-20T19:49:36.041Z,9.27
2019-04-20T19:54:46.599Z,8.93
2019-04-20T19:59:40.354Z,8.43
2019-04-20T20:04:47.105Z,13.00
2019-04-20T20:09:53.022Z,8.03
2019-04-20T20:14:53.167Z,11.03
2019-04-20T20:20:25.157Z,9.90
2019-04-20T20:25:05.324Z,8.00
2019-04-20T20:30:20.463Z,9.47
2019-04-20T20:35:23.493Z,9.27
2019-04-20T20:40:30.514Z,8.60
2019-04-20T20:45:36.997Z,9.53
2019-04-20T20:50:55.254Z,7.77
2019-04-20T20:55:45.937Z,8.37
2019-04-20T21:00:58.537Z,7.37
2019-04-20T21:05:53.795Z,8.07
2019-04-20T21:10:58.222Z,8.90
2019-04-20T21:16:11.543Z,9.73
2019-04-20T21:21:21.972Z,10.27
2019-04-20T21:26:21.466Z,10.83
2019-04-20T21:31:24.225Z,7.67
2019-04-20T21:36:29.949Z,8.03
2019-04-20T21:41:33.698Z,10.23
2019-04-20T21:46:44.144Z,7.83
2019-04-20T21:51:54.873Z,8.67
2019-04-20T21:56:56.151Z,9.03
2019-04-20T22:02:05.705Z,11.20
2019-04-20T22:07:02.642Z,10.07
2019-04-20T22:12:07.744Z,13.50
2019-04-20T22:17:14.234Z,12.13
2019-04-20T22:22:36.716Z,9.47
2019-04-20T22:27:29.492Z,9.13
2019-04-20T22:32:30.536Z,9.23
2019-04-20T22:37:42.784Z,10.10
2019-04-20T22:42:50.992Z,12.83
2019-04-20T22:48:01.153Z,8.77
2019-04-20T22:53:18.984Z,8.87
2019-04-20T22:58:23.615Z,9.77
2019-04-20T23:03:12.613Z,10.50
2019-04-20T23:08:17.134Z,10.07
2019-04-20T23:13:29.512Z,9.70
2019-04-20T23:18:28.431Z,10.80
2019-04-20T23:36:31.887Z,8.47
2019-04-20T23:41:29.121Z,11.30
2019-04-20T23:46:35.145Z,12.73
2019-04-20T23:51:59.147Z,8.37
2019-04-20T23:56:45.909Z,8.37
